sensor_id;sensor_type;location;lat;lon;timestamp;P1;durP1;ratioP1;P2;durP2;ratioP2
59872;SDS011;50750;51.636;4.948;2023-05-10T00:00:23;3.00;;;1.70;;
59872;SDS011;50750;51.636;4.948;2023-05-10T00:03:07;3.10;;;1.90;;
59872;SDS011;50750;51.636;4.948;2023-05-10T00:05:34;3.00;;;2.00;;
59872;SDS011;50750;51.636;4.948;2023-05-10T00:08:01;3.80;;;2.20;;
59872;SDS011;50750;51.636;4.948;2023-05-10T00:10:27;3.70;;;1.80;;
59872;SDS011;50750;51.636;4.948;2023-05-10T00:12:54;3.20;;;2.10;;
59872;SDS011;50750;51.636;4.948;2023-05-10T00:15:20;3.60;;;1.90;;
59872;SDS011;50750;51.636;4.948;2023-05-10T00:17:47;2.90;;;1.80;;
59872;SDS011;50750;51.636;4.948;2023-05-10T00:20:13;3.00;;;1.80;;
59872;SDS011;50750;51.636;4.948;2023-05-10T00:22:40;3.20;;;1.90;;
59872;SDS011;50750;51.636;4.948;2023-05-10T00:25:07;3.10;;;2.00;;
59872;SDS011;50750;51.636;4.948;2023-05-10T00:27:34;3.00;;;1.80;;
59872;SDS011;50750;51.636;4.948;2023-05-10T00:30:00;2.90;;;1.90;;
59872;SDS011;50750;51.636;4.948;2023-05-10T00:32:27;3.40;;;1.90;;
59872;SDS011;50750;51.636;4.948;2023-05-10T00:34:53;2.80;;;1.70;;
59872;SDS011;50750;51.636;4.948;2023-05-10T00:37:20;3.00;;;1.80;;
59872;SDS011;50750;51.636;4.948;2023-05-10T00:39:47;2.90;;;1.80;;
59872;SDS011;50750;51.636;4.948;2023-05-10T00:42:13;3.70;;;1.80;;
59872;SDS011;50750;51.636;4.948;2023-05-10T00:44:40;3.70;;;2.00;;
59872;SDS011;50750;51.636;4.948;2023-05-10T00:47:07;3.50;;;2.00;;
59872;SDS011;50750;51.636;4.948;2023-05-10T00:49:34;3.80;;;1.90;;
59872;SDS011;50750;51.636;4.948;2023-05-10T00:52:01;3.80;;;2.10;;
59872;SDS011;50750;51.636;4.948;2023-05-10T00:54:29;4.20;;;2.20;;
59872;SDS011;50750;51.636;4.948;2023-05-10T00:56:56;3.70;;;2.20;;
59872;SDS011;50750;51.636;4.948;2023-05-10T00:59:23;3.80;;;1.70;;
59872;SDS011;50750;51.636;4.948;2023-05-10T01:01:50;3.90;;;1.90;;
59872;SDS011;50750;51.636;4.948;2023-05-10T01:04:17;2.80;;;1.80;;
59872;SDS011;50750;51.636;4.948;2023-05-10T01:06:46;3.30;;;1.90;;
59872;SDS011;50750;51.636;4.948;2023-05-10T01:09:12;3.40;;;2.10;;
59872;SDS011;50750;51.636;4.948;2023-05-10T01:11:39;3.60;;;1.80;;
59872;SDS011;50750;51.636;4.948;2023-05-10T01:14:06;3.90;;;2.30;;
59872;SDS011;50750;51.636;4.948;2023-05-10T01:16:34;3.90;;;2.40;;
59872;SDS011;50750;51.636;4.948;2023-05-10T01:19:05;4.40;;;2.10;;
59872;SDS011;50750;51.636;4.948;2023-05-10T01:21:38;4.20;;;2.20;;
59872;SDS011;50750;51.636;4.948;2023-05-10T01:35:10;3.30;;;1.70;;
59872;SDS011;50750;51.636;4.948;2023-05-10T01:38:04;3.80;;;2.20;;
59872;SDS011;50750;51.636;4.948;2023-05-10T01:43:00;4.30;;;2.20;;
59872;SDS011;50750;51.636;4.948;2023-05-10T01:48:20;4.00;;;2.20;;
59872;SDS011;50750;51.636;4.948;2023-05-10T01:50:49;4.30;;;2.20;;
59872;SDS011;50750;51.636;4.948;2023-05-10T01:53:20;3.40;;;2.10;;
59872;SDS011;50750;51.636;4.948;2023-05-10T01:55:49;3.60;;;2.30;;
59872;SDS011;50750;51.636;4.948;2023-05-10T01:58:20;3.70;;;2.40;;
59872;SDS011;50750;51.636;4.948;2023-05-10T02:00:51;4.00;;;2.20;;
59872;SDS011;50750;51.636;4.948;2023-05-10T02:03:23;3.60;;;2.20;;
59872;SDS011;50750;51.636;4.948;2023-05-10T02:05:52;3.90;;;2.30;;
59872;SDS011;50750;51.636;4.948;2023-05-10T02:08:21;3.60;;;2.20;;
59872;SDS011;50750;51.636;4.948;2023-05-10T02:10:49;3.80;;;2.50;;
59872;SDS011;50750;51.636;4.948;2023-05-10T02:13:18;3.60;;;2.20;;
59872;SDS011;50750;51.636;4.948;2023-05-10T02:15:46;4.10;;;2.50;;
59872;SDS011;50750;51.636;4.948;2023-05-10T02:18:15;4.20;;;2.60;;
59872;SDS011;50750;51.636;4.948;2023-05-10T02:20:43;3.50;;;2.40;;
59872;SDS011;50750;51.636;4.948;2023-05-10T02:23:12;3.90;;;2.40;;
59872;SDS011;50750;51.636;4.948;2023-05-10T02:25:40;4.50;;;2.10;;
59872;SDS011;50750;51.636;4.948;2023-05-10T02:28:09;3.90;;;2.10;;
59872;SDS011;50750;51.636;4.948;2023-05-10T02:30:38;3.80;;;2.40;;
59872;SDS011;50750;51.636;4.948;2023-05-10T02:33:05;3.80;;;2.50;;
59872;SDS011;50750;51.636;4.948;2023-05-10T02:35:32;3.30;;;2.20;;
59872;SDS011;50750;51.636;4.948;2023-05-10T02:38:01;3.60;;;2.60;;
59872;SDS011;50750;51.636;4.948;2023-05-10T02:40:28;4.20;;;2.50;;
59872;SDS011;50750;51.636;4.948;2023-05-10T02:42:56;3.60;;;2.40;;
59872;SDS011;50750;51.636;4.948;2023-05-10T02:45:26;4.40;;;2.60;;
59872;SDS011;50750;51.636;4.948;2023-05-10T02:47:56;4.30;;;2.70;;
59872;SDS011;50750;51.636;4.948;2023-05-10T02:50:23;3.60;;;2.30;;
59872;SDS011;50750;51.636;4.948;2023-05-10T02:52:54;4.00;;;2.30;;
59872;SDS011;50750;51.636;4.948;2023-05-10T02:55:26;3.70;;;2.40;;
59872;SDS011;50750;51.636;4.948;2023-05-10T02:57:59;4.30;;;2.70;;
59872;SDS011;50750;51.636;4.948;2023-05-10T03:00:27;4.40;;;2.80;;
59872;SDS011;50750;51.636;4.948;2023-05-10T03:02:54;4.90;;;2.70;;
59872;SDS011;50750;51.636;4.948;2023-05-10T03:05:21;5.20;;;2.90;;
59872;SDS011;50750;51.636;4.948;2023-05-10T03:07:48;5.20;;;2.80;;
59872;SDS011;50750;51.636;4.948;2023-05-10T03:10:14;4.40;;;2.80;;
59872;SDS011;50750;51.636;4.948;2023-05-10T03:12:52;4.90;;;2.60;;
59872;SDS011;50750;51.636;4.948;2023-05-10T03:21:03;4.10;;;2.30;;
59872;SDS011;50750;51.636;4.948;2023-05-10T03:23:35;3.70;;;2.40;;
59872;SDS011;50750;51.636;4.948;2023-05-10T03:26:04;5.20;;;3.10;;
59872;SDS011;50750;51.636;4.948;2023-05-10T03:28:31;4.90;;;2.80;;
59872;SDS011;50750;51.636;4.948;2023-05-10T03:31:01;4.30;;;2.80;;
59872;SDS011;50750;51.636;4.948;2023-05-10T03:33:31;5.30;;;3.20;;
59872;SDS011;50750;51.636;4.948;2023-05-10T03:35:58;4.30;;;2.90;;
59872;SDS011;50750;51.636;4.948;2023-05-10T03:38:24;4.20;;;2.80;;
59872;SDS011;50750;51.636;4.948;2023-05-10T03:40:50;5.60;;;3.30;;
59872;SDS011;50750;51.636;4.948;2023-05-10T03:43:17;4.90;;;3.40;;
59872;SDS011;50750;51.636;4.948;2023-05-10T03:45:44;4.40;;;3.10;;
59872;SDS011;50750;51.636;4.948;2023-05-10T03:48:10;5.30;;;3.60;;
59872;SDS011;50750;51.636;4.948;2023-05-10T03:50:37;5.90;;;3.50;;
59872;SDS011;50750;51.636;4.948;2023-05-10T03:53:03;4.10;;;2.90;;
59872;SDS011;50750;51.636;4.948;2023-05-10T03:55:30;5.10;;;3.40;;
59872;SDS011;50750;51.636;4.948;2023-05-10T03:58:00;7.10;;;3.80;;
59872;SDS011;50750;51.636;4.948;2023-05-10T04:00:27;5.40;;;3.70;;
59872;SDS011;50750;51.636;4.948;2023-05-10T04:02:56;5.50;;;3.70;;
59872;SDS011;50750;51.636;4.948;2023-05-10T04:05:22;5.30;;;3.80;;
59872;SDS011;50750;51.636;4.948;2023-05-10T04:07:49;5.90;;;3.80;;
59872;SDS011;50750;51.636;4.948;2023-05-10T04:10:16;7.50;;;4.30;;
59872;SDS011;50750;51.636;4.948;2023-05-10T04:12:43;5.40;;;3.80;;
59872;SDS011;50750;51.636;4.948;2023-05-10T04:15:10;5.40;;;3.90;;
59872;SDS011;50750;51.636;4.948;2023-05-10T04:17:36;5.20;;;3.70;;
59872;SDS011;50750;51.636;4.948;2023-05-10T04:20:04;5.80;;;3.90;;
59872;SDS011;50750;51.636;4.948;2023-05-10T04:22:31;5.90;;;3.70;;
59872;SDS011;50750;51.636;4.948;2023-05-10T04:24:58;5.10;;;3.60;;
59872;SDS011;50750;51.636;4.948;2023-05-10T04:27:25;5.30;;;3.50;;
59872;SDS011;50750;51.636;4.948;2023-05-10T04:29:51;5.70;;;3.80;;
59872;SDS011;50750;51.636;4.948;2023-05-10T04:32:18;6.00;;;3.80;;
59872;SDS011;50750;51.636;4.948;2023-05-10T04:34:47;5.00;;;3.50;;
59872;SDS011;50750;51.636;4.948;2023-05-10T04:37:14;6.20;;;4.00;;
59872;SDS011;50750;51.636;4.948;2023-05-10T04:39:40;6.90;;;3.80;;
59872;SDS011;50750;51.636;4.948;2023-05-10T04:42:07;5.40;;;3.70;;
59872;SDS011;50750;51.636;4.948;2023-05-10T04:44:34;5.10;;;3.80;;
59872;SDS011;50750;51.636;4.948;2023-05-10T04:47:01;5.00;;;3.70;;
59872;SDS011;50750;51.636;4.948;2023-05-10T04:49:29;5.20;;;3.60;;
59872;SDS011;50750;51.636;4.948;2023-05-10T04:51:56;5.60;;;3.20;;
59872;SDS011;50750;51.636;4.948;2023-05-10T04:54:22;5.20;;;3.40;;
59872;SDS011;50750;51.636;4.948;2023-05-10T04:56:49;5.10;;;3.50;;
59872;SDS011;50750;51.636;4.948;2023-05-10T04:59:15;4.70;;;3.40;;
59872;SDS011;50750;51.636;4.948;2023-05-10T05:01:42;5.40;;;3.60;;
59872;SDS011;50750;51.636;4.948;2023-05-10T05:04:08;4.90;;;3.30;;
59872;SDS011;50750;51.636;4.948;2023-05-10T05:06:35;4.90;;;3.50;;
59872;SDS011;50750;51.636;4.948;2023-05-10T05:09:01;5.80;;;3.40;;
59872;SDS011;50750;51.636;4.948;2023-05-10T05:11:28;4.30;;;3.20;;
59872;SDS011;50750;51.636;4.948;2023-05-10T05:13:55;4.50;;;3.30;;
59872;SDS011;50750;51.636;4.948;2023-05-10T05:16:21;5.30;;;3.20;;
59872;SDS011;50750;51.636;4.948;2023-05-10T05:18:48;4.10;;;2.80;;
59872;SDS011;50750;51.636;4.948;2023-05-10T05:21:15;5.20;;;3.10;;
59872;SDS011;50750;51.636;4.948;2023-05-10T05:23:45;4.20;;;2.90;;
59872;SDS011;50750;51.636;4.948;2023-05-10T05:26:12;4.00;;;2.80;;
59872;SDS011;50750;51.636;4.948;2023-05-10T05:28:39;4.90;;;3.00;;
59872;SDS011;50750;51.636;4.948;2023-05-10T05:31:06;4.20;;;3.30;;
59872;SDS011;50750;51.636;4.948;2023-05-10T05:33:33;4.80;;;3.20;;
59872;SDS011;50750;51.636;4.948;2023-05-10T05:36:01;5.10;;;3.40;;
59872;SDS011;50750;51.636;4.948;2023-05-10T05:38:28;4.90;;;3.40;;
59872;SDS011;50750;51.636;4.948;2023-05-10T05:40:55;5.70;;;3.70;;
59872;SDS011;50750;51.636;4.948;2023-05-10T05:43:21;5.50;;;3.60;;
59872;SDS011;50750;51.636;4.948;2023-05-10T05:45:48;5.60;;;3.40;;
59872;SDS011;50750;51.636;4.948;2023-05-10T05:48:15;5.00;;;3.40;;
59872;SDS011;50750;51.636;4.948;2023-05-10T05:50:41;5.40;;;2.90;;
59872;SDS011;50750;51.636;4.948;2023-05-10T05:53:08;4.30;;;3.30;;
59872;SDS011;50750;51.636;4.948;2023-05-10T05:55:35;6.00;;;3.40;;
59872;SDS011;50750;51.636;4.948;2023-05-10T05:58:01;5.40;;;3.60;;
59872;SDS011;50750;51.636;4.948;2023-05-10T06:00:29;5.20;;;3.80;;
59872;SDS011;50750;51.636;4.948;2023-05-10T06:02:55;5.00;;;3.60;;
59872;SDS011;50750;51.636;4.948;2023-05-10T06:05:24;6.60;;;3.80;;
59872;SDS011;50750;51.636;4.948;2023-05-10T06:07:51;4.80;;;3.60;;
59872;SDS011;50750;51.636;4.948;2023-05-10T06:10:17;6.10;;;4.20;;
59872;SDS011;50750;51.636;4.948;2023-05-10T06:12:44;6.70;;;4.10;;
59872;SDS011;50750;51.636;4.948;2023-05-10T06:15:10;13.50;;;8.10;;
59872;SDS011;50750;51.636;4.948;2023-05-10T06:17:37;11.00;;;7.50;;
59872;SDS011;50750;51.636;4.948;2023-05-10T06:20:05;11.10;;;6.50;;
59872;SDS011;50750;51.636;4.948;2023-05-10T06:22:32;13.10;;;8.20;;
59872;SDS011;50750;51.636;4.948;2023-05-10T06:24:58;10.80;;;7.20;;
59872;SDS011;50750;51.636;4.948;2023-05-10T06:27:25;12.50;;;7.20;;
59872;SDS011;50750;51.636;4.948;2023-05-10T06:29:52;11.20;;;6.80;;
59872;SDS011;50750;51.636;4.948;2023-05-10T06:32:18;10.10;;;6.40;;
59872;SDS011;50750;51.636;4.948;2023-05-10T06:34:44;11.00;;;6.20;;
59872;SDS011;50750;51.636;4.948;2023-05-10T06:37:12;9.30;;;5.90;;
59872;SDS011;50750;51.636;4.948;2023-05-10T06:39:38;8.80;;;5.90;;
59872;SDS011;50750;51.636;4.948;2023-05-10T06:42:05;9.10;;;5.70;;
59872;SDS011;50750;51.636;4.948;2023-05-10T06:44:32;8.90;;;5.30;;
59872;SDS011;50750;51.636;4.948;2023-05-10T06:46:58;10.20;;;5.40;;
59872;SDS011;50750;51.636;4.948;2023-05-10T06:49:28;8.80;;;5.30;;
59872;SDS011;50750;51.636;4.948;2023-05-10T06:51:57;7.80;;;4.90;;
59872;SDS011;50750;51.636;4.948;2023-05-10T06:54:24;7.20;;;4.70;;
59872;SDS011;50750;51.636;4.948;2023-05-10T06:56:50;9.10;;;4.90;;
59872;SDS011;50750;51.636;4.948;2023-05-10T06:59:17;7.00;;;4.30;;
59872;SDS011;50750;51.636;4.948;2023-05-10T07:01:45;6.60;;;4.30;;
59872;SDS011;50750;51.636;4.948;2023-05-10T07:04:11;6.30;;;4.10;;
59872;SDS011;50750;51.636;4.948;2023-05-10T07:06:39;6.60;;;4.40;;
59872;SDS011;50750;51.636;4.948;2023-05-10T07:09:05;7.40;;;4.30;;
59872;SDS011;50750;51.636;4.948;2023-05-10T07:11:32;7.20;;;4.40;;
59872;SDS011;50750;51.636;4.948;2023-05-10T07:13:58;6.80;;;4.00;;
59872;SDS011;50750;51.636;4.948;2023-05-10T07:16:25;6.20;;;3.40;;
59872;SDS011;50750;51.636;4.948;2023-05-10T07:18:52;6.00;;;3.50;;
59872;SDS011;50750;51.636;4.948;2023-05-10T07:21:19;4.90;;;3.40;;
59872;SDS011;50750;51.636;4.948;2023-05-10T07:23:46;5.80;;;3.60;;
59872;SDS011;50750;51.636;4.948;2023-05-10T07:26:12;5.40;;;3.90;;
59872;SDS011;50750;51.636;4.948;2023-05-10T07:28:41;6.40;;;3.50;;
59872;SDS011;50750;51.636;4.948;2023-05-10T07:31:07;7.20;;;3.50;;
59872;SDS011;50750;51.636;4.948;2023-05-10T07:33:34;10.30;;;3.90;;
59872;SDS011;50750;51.636;4.948;2023-05-10T07:36:00;5.40;;;3.10;;
59872;SDS011;50750;51.636;4.948;2023-05-10T07:38:27;4.80;;;2.90;;
59872;SDS011;50750;51.636;4.948;2023-05-10T07:40:53;4.50;;;2.90;;
59872;SDS011;50750;51.636;4.948;2023-05-10T07:43:20;5.20;;;2.90;;
59872;SDS011;50750;51.636;4.948;2023-05-10T07:45:46;5.30;;;3.10;;
59872;SDS011;50750;51.636;4.948;2023-05-10T07:48:13;5.70;;;2.80;;
59872;SDS011;50750;51.636;4.948;2023-05-10T07:50:39;4.80;;;2.60;;
59872;SDS011;50750;51.636;4.948;2023-05-10T07:53:06;6.40;;;2.60;;
59872;SDS011;50750;51.636;4.948;2023-05-10T07:55:32;4.60;;;2.40;;
59872;SDS011;50750;51.636;4.948;2023-05-10T07:57:59;5.10;;;2.70;;
59872;SDS011;50750;51.636;4.948;2023-05-10T08:00:27;4.60;;;2.40;;
59872;SDS011;50750;51.636;4.948;2023-05-10T08:02:53;5.70;;;2.70;;
59872;SDS011;50750;51.636;4.948;2023-05-10T08:05:20;5.40;;;2.60;;
59872;SDS011;50750;51.636;4.948;2023-05-10T08:07:46;4.70;;;2.40;;
59872;SDS011;50750;51.636;4.948;2023-05-10T08:10:13;5.70;;;2.40;;
59872;SDS011;50750;51.636;4.948;2023-05-10T08:12:39;4.20;;;2.10;;
59872;SDS011;50750;51.636;4.948;2023-05-10T08:15:06;4.40;;;2.40;;
59872;SDS011;50750;51.636;4.948;2023-05-10T08:17:34;4.00;;;2.10;;
59872;SDS011;50750;51.636;4.948;2023-05-10T08:20:00;3.30;;;2.00;;
59872;SDS011;50750;51.636;4.948;2023-05-10T08:22:27;3.40;;;2.10;;
59872;SDS011;50750;51.636;4.948;2023-05-10T08:24:54;3.50;;;2.20;;
59872;SDS011;50750;51.636;4.948;2023-05-10T08:27:20;3.60;;;2.20;;
59872;SDS011;50750;51.636;4.948;2023-05-10T08:29:47;5.00;;;2.20;;
59872;SDS011;50750;51.636;4.948;2023-05-10T08:32:14;4.50;;;2.30;;
59872;SDS011;50750;51.636;4.948;2023-05-10T08:34:40;3.70;;;2.00;;
59872;SDS011;50750;51.636;4.948;2023-05-10T08:37:07;3.20;;;1.80;;
59872;SDS011;50750;51.636;4.948;2023-05-10T08:39:34;3.70;;;2.20;;
59872;SDS011;50750;51.636;4.948;2023-05-10T08:42:03;3.20;;;2.00;;
59872;SDS011;50750;51.636;4.948;2023-05-10T08:44:34;5.00;;;2.40;;
59872;SDS011;50750;51.636;4.948;2023-05-10T08:47:04;5.30;;;2.20;;
59872;SDS011;50750;51.636;4.948;2023-05-10T08:49:33;2.90;;;1.80;;
59872;SDS011;50750;51.636;4.948;2023-05-10T08:52:04;5.40;;;2.00;;
59872;SDS011;50750;51.636;4.948;2023-05-10T08:54:34;3.20;;;1.80;;
59872;SDS011;50750;51.636;4.948;2023-05-10T08:57:10;3.60;;;1.90;;
59872;SDS011;50750;51.636;4.948;2023-05-10T08:59:37;3.70;;;1.70;;
59872;SDS011;50750;51.636;4.948;2023-05-10T09:02:09;4.40;;;1.70;;
59872;SDS011;50750;51.636;4.948;2023-05-10T09:04:37;2.80;;;1.60;;
59872;SDS011;50750;51.636;4.948;2023-05-10T09:07:04;3.60;;;1.80;;
59872;SDS011;50750;51.636;4.948;2023-05-10T09:09:32;3.90;;;1.50;;
59872;SDS011;50750;51.636;4.948;2023-05-10T09:12:01;5.20;;;2.40;;
59872;SDS011;50750;51.636;4.948;2023-05-10T09:14:27;5.30;;;2.70;;
59872;SDS011;50750;51.636;4.948;2023-05-10T09:16:55;4.70;;;2.60;;
59872;SDS011;50750;51.636;4.948;2023-05-10T09:19:22;5.50;;;2.60;;
59872;SDS011;50750;51.636;4.948;2023-05-10T09:24:18;5.40;;;2.90;;
59872;SDS011;50750;51.636;4.948;2023-05-10T09:26:47;5.40;;;3.10;;
59872;SDS011;50750;51.636;4.948;2023-05-10T09:29:14;5.60;;;3.10;;
59872;SDS011;50750;51.636;4.948;2023-05-10T09:31:46;5.30;;;2.80;;
59872;SDS011;50750;51.636;4.948;2023-05-10T09:34:18;5.10;;;2.70;;
59872;SDS011;50750;51.636;4.948;2023-05-10T09:36:56;6.90;;;2.70;;
59872;SDS011;50750;51.636;4.948;2023-05-10T09:39:33;8.00;;;3.10;;
59872;SDS011;50750;51.636;4.948;2023-05-10T09:42:07;6.20;;;2.70;;
59872;SDS011;50750;51.636;4.948;2023-05-10T09:44:35;7.90;;;2.90;;
59872;SDS011;50750;51.636;4.948;2023-05-10T09:47:02;4.90;;;2.50;;
59872;SDS011;50750;51.636;4.948;2023-05-10T09:49:29;4.70;;;2.60;;
59872;SDS011;50750;51.636;4.948;2023-05-10T09:52:17;4.40;;;2.10;;
59872;SDS011;50750;51.636;4.948;2023-05-10T09:54:45;4.30;;;2.50;;
59872;SDS011;50750;51.636;4.948;2023-05-10T09:57:23;5.20;;;2.10;;
59872;SDS011;50750;51.636;4.948;2023-05-10T09:59:50;4.80;;;1.90;;
59872;SDS011;50750;51.636;4.948;2023-05-10T10:02:17;3.80;;;2.10;;
59872;SDS011;50750;51.636;4.948;2023-05-10T10:04:43;3.90;;;1.90;;
59872;SDS011;50750;51.636;4.948;2023-05-10T10:07:10;5.20;;;2.00;;
59872;SDS011;50750;51.636;4.948;2023-05-10T10:09:37;3.20;;;1.80;;
59872;SDS011;50750;51.636;4.948;2023-05-10T10:12:04;4.70;;;2.00;;
59872;SDS011;50750;51.636;4.948;2023-05-10T10:14:31;3.30;;;1.70;;
59872;SDS011;50750;51.636;4.948;2023-05-10T10:17:00;5.00;;;1.70;;
59872;SDS011;50750;51.636;4.948;2023-05-10T10:19:27;3.10;;;1.70;;
59872;SDS011;50750;51.636;4.948;2023-05-10T10:21:54;3.70;;;1.90;;
59872;SDS011;50750;51.636;4.948;2023-05-10T10:24:20;4.10;;;1.70;;
59872;SDS011;50750;51.636;4.948;2023-05-10T10:26:47;3.90;;;1.60;;
59872;SDS011;50750;51.636;4.948;2023-05-10T10:29:23;4.10;;;1.60;;
59872;SDS011;50750;51.636;4.948;2023-05-10T10:32:06;4.00;;;1.70;;
59872;SDS011;50750;51.636;4.948;2023-05-10T10:34:50;3.30;;;1.60;;
59872;SDS011;50750;51.636;4.948;2023-05-10T10:37:17;4.00;;;1.70;;
59872;SDS011;50750;51.636;4.948;2023-05-10T10:39:44;3.10;;;1.40;;
59872;SDS011;50750;51.636;4.948;2023-05-10T10:42:14;3.80;;;1.30;;
59872;SDS011;50750;51.636;4.948;2023-05-10T10:45:12;2.90;;;1.40;;
59872;SDS011;50750;51.636;4.948;2023-05-10T10:47:39;3.00;;;1.50;;
59872;SDS011;50750;51.636;4.948;2023-05-10T10:50:06;3.30;;;1.70;;
59872;SDS011;50750;51.636;4.948;2023-05-10T10:52:35;3.30;;;1.80;;
59872;SDS011;50750;51.636;4.948;2023-05-10T10:55:20;3.90;;;1.70;;
59872;SDS011;50750;51.636;4.948;2023-05-10T10:57:53;3.60;;;1.50;;
59872;SDS011;50750;51.636;4.948;2023-05-10T11:02:57;2.90;;;1.50;;
59872;SDS011;50750;51.636;4.948;2023-05-10T11:07:55;3.40;;;1.70;;
59872;SDS011;50750;51.636;4.948;2023-05-10T11:10:24;3.50;;;1.90;;
59872;SDS011;50750;51.636;4.948;2023-05-10T11:12:52;4.00;;;1.50;;
59872;SDS011;50750;51.636;4.948;2023-05-10T11:15:20;6.20;;;1.90;;
59872;SDS011;50750;51.636;4.948;2023-05-10T11:17:55;3.30;;;1.70;;
59872;SDS011;50750;51.636;4.948;2023-05-10T11:20:22;2.80;;;1.50;;
59872;SDS011;50750;51.636;4.948;2023-05-10T11:22:53;2.90;;;1.40;;
59872;SDS011;50750;51.636;4.948;2023-05-10T11:25:26;2.80;;;1.50;;
59872;SDS011;50750;51.636;4.948;2023-05-10T11:27:53;3.00;;;1.50;;
59872;SDS011;50750;51.636;4.948;2023-05-10T11:30:20;3.60;;;1.70;;
59872;SDS011;50750;51.636;4.948;2023-05-10T11:32:46;3.30;;;1.60;;
59872;SDS011;50750;51.636;4.948;2023-05-10T11:35:13;5.70;;;1.60;;
59872;SDS011;50750;51.636;4.948;2023-05-10T11:37:40;3.20;;;1.50;;
59872;SDS011;50750;51.636;4.948;2023-05-10T11:42:39;2.40;;;1.50;;
59872;SDS011;50750;51.636;4.948;2023-05-10T11:45:06;3.40;;;1.50;;
59872;SDS011;50750;51.636;4.948;2023-05-10T11:47:34;4.60;;;1.40;;
59872;SDS011;50750;51.636;4.948;2023-05-10T11:50:01;3.30;;;1.50;;
59872;SDS011;50750;51.636;4.948;2023-05-10T11:52:28;2.50;;;1.20;;
59872;SDS011;50750;51.636;4.948;2023-05-10T11:54:55;2.70;;;1.40;;
59872;SDS011;50750;51.636;4.948;2023-05-10T11:57:25;3.40;;;1.40;;
59872;SDS011;50750;51.636;4.948;2023-05-10T11:59:53;2.90;;;1.60;;
59872;SDS011;50750;51.636;4.948;2023-05-10T12:02:21;2.50;;;1.30;;
59872;SDS011;50750;51.636;4.948;2023-05-10T12:04:47;2.80;;;1.50;;
59872;SDS011;50750;51.636;4.948;2023-05-10T12:07:15;4.80;;;1.50;;
59872;SDS011;50750;51.636;4.948;2023-05-10T12:10:26;3.80;;;1.80;;
59872;SDS011;50750;51.636;4.948;2023-05-10T12:12:45;3.90;;;1.50;;
59872;SDS011;50750;51.636;4.948;2023-05-10T12:15:19;3.90;;;1.60;;
59872;SDS011;50750;51.636;4.948;2023-05-10T12:17:47;2.80;;;1.50;;
59872;SDS011;50750;51.636;4.948;2023-05-10T12:20:15;2.50;;;1.50;;
59872;SDS011;50750;51.636;4.948;2023-05-10T12:22:55;3.50;;;1.60;;
59872;SDS011;50750;51.636;4.948;2023-05-10T12:25:23;3.10;;;1.60;;
59872;SDS011;50750;51.636;4.948;2023-05-10T12:27:56;3.70;;;2.20;;
59872;SDS011;50750;51.636;4.948;2023-05-10T12:30:25;3.50;;;2.10;;
59872;SDS011;50750;51.636;4.948;2023-05-10T12:32:53;5.30;;;2.00;;
59872;SDS011;50750;51.636;4.948;2023-05-10T12:35:29;2.40;;;1.60;;
59872;SDS011;50750;51.636;4.948;2023-05-10T12:37:57;3.90;;;1.80;;
59872;SDS011;50750;51.636;4.948;2023-05-10T12:40:24;3.80;;;1.80;;
59872;SDS011;50750;51.636;4.948;2023-05-10T12:42:51;4.20;;;1.80;;
59872;SDS011;50750;51.636;4.948;2023-05-10T12:45:18;3.30;;;1.80;;
59872;SDS011;50750;51.636;4.948;2023-05-10T12:47:45;3.60;;;1.80;;
59872;SDS011;50750;51.636;4.948;2023-05-10T12:50:11;2.70;;;1.50;;
59872;SDS011;50750;51.636;4.948;2023-05-10T12:52:38;2.90;;;1.50;;
59872;SDS011;50750;51.636;4.948;2023-05-10T12:55:04;2.60;;;1.40;;
59872;SDS011;50750;51.636;4.948;2023-05-10T12:57:31;2.60;;;1.50;;
59872;SDS011;50750;51.636;4.948;2023-05-10T12:59:57;3.10;;;1.40;;
59872;SDS011;50750;51.636;4.948;2023-05-10T13:02:24;3.10;;;1.40;;
59872;SDS011;50750;51.636;4.948;2023-05-10T13:04:50;2.50;;;1.60;;
59872;SDS011;50750;51.636;4.948;2023-05-10T13:07:17;3.30;;;1.50;;
59872;SDS011;50750;51.636;4.948;2023-05-10T13:09:44;2.60;;;1.40;;
59872;SDS011;50750;51.636;4.948;2023-05-10T13:12:10;3.00;;;1.60;;
59872;SDS011;50750;51.636;4.948;2023-05-10T13:14:37;3.40;;;1.40;;
59872;SDS011;50750;51.636;4.948;2023-05-10T13:17:04;2.50;;;1.30;;
59872;SDS011;50750;51.636;4.948;2023-05-10T13:19:30;3.10;;;1.50;;
59872;SDS011;50750;51.636;4.948;2023-05-10T13:21:57;2.70;;;1.20;;
59872;SDS011;50750;51.636;4.948;2023-05-10T13:24:24;2.80;;;1.30;;
59872;SDS011;50750;51.636;4.948;2023-05-10T13:26:50;2.70;;;1.70;;
59872;SDS011;50750;51.636;4.948;2023-05-10T13:29:17;2.90;;;1.30;;
59872;SDS011;50750;51.636;4.948;2023-05-10T13:31:44;2.80;;;1.30;;
59872;SDS011;50750;51.636;4.948;2023-05-10T13:34:10;3.40;;;1.50;;
59872;SDS011;50750;51.636;4.948;2023-05-10T13:36:37;3.60;;;1.50;;
59872;SDS011;50750;51.636;4.948;2023-05-10T13:39:04;3.70;;;1.50;;
59872;SDS011;50750;51.636;4.948;2023-05-10T13:41:31;3.10;;;1.50;;
59872;SDS011;50750;51.636;4.948;2023-05-10T13:43:57;3.10;;;1.60;;
59872;SDS011;50750;51.636;4.948;2023-05-10T13:46:24;3.30;;;1.50;;
59872;SDS011;50750;51.636;4.948;2023-05-10T13:48:51;3.50;;;1.50;;
59872;SDS011;50750;51.636;4.948;2023-05-10T13:51:17;3.70;;;2.00;;
59872;SDS011;50750;51.636;4.948;2023-05-10T13:53:44;3.30;;;1.60;;
59872;SDS011;50750;51.636;4.948;2023-05-10T13:56:11;3.00;;;1.30;;
59872;SDS011;50750;51.636;4.948;2023-05-10T13:58:38;2.80;;;1.10;;
59872;SDS011;50750;51.636;4.948;2023-05-10T14:01:04;2.70;;;1.30;;
59872;SDS011;50750;51.636;4.948;2023-05-10T14:03:31;2.20;;;1.10;;
59872;SDS011;50750;51.636;4.948;2023-05-10T14:05:58;2.70;;;1.20;;
59872;SDS011;50750;51.636;4.948;2023-05-10T14:08:25;3.40;;;1.40;;
59872;SDS011;50750;51.636;4.948;2023-05-10T14:10:53;3.70;;;1.20;;
59872;SDS011;50750;51.636;4.948;2023-05-10T14:13:19;2.70;;;1.00;;
59872;SDS011;50750;51.636;4.948;2023-05-10T14:15:46;2.60;;;1.30;;
59872;SDS011;50750;51.636;4.948;2023-05-10T14:18:12;2.20;;;1.10;;
59872;SDS011;50750;51.636;4.948;2023-05-10T14:20:39;2.00;;;1.10;;
59872;SDS011;50750;51.636;4.948;2023-05-10T14:23:06;3.10;;;1.20;;
59872;SDS011;50750;51.636;4.948;2023-05-10T14:25:32;2.80;;;1.20;;
59872;SDS011;50750;51.636;4.948;2023-05-10T14:27:59;2.30;;;1.10;;
59872;SDS011;50750;51.636;4.948;2023-05-10T14:30:26;2.70;;;1.40;;
59872;SDS011;50750;51.636;4.948;2023-05-10T14:32:53;1.70;;;1.00;;
59872;SDS011;50750;51.636;4.948;2023-05-10T14:35:20;1.60;;;1.00;;
59872;SDS011;50750;51.636;4.948;2023-05-10T14:37:47;3.10;;;0.90;;
59872;SDS011;50750;51.636;4.948;2023-05-10T14:40:13;2.40;;;1.20;;
59872;SDS011;50750;51.636;4.948;2023-05-10T14:42:41;3.60;;;1.10;;
59872;SDS011;50750;51.636;4.948;2023-05-10T14:45:09;2.40;;;1.10;;
59872;SDS011;50750;51.636;4.948;2023-05-10T14:47:37;3.10;;;1.20;;
59872;SDS011;50750;51.636;4.948;2023-05-10T14:50:03;2.30;;;1.30;;
59872;SDS011;50750;51.636;4.948;2023-05-10T14:52:30;1.80;;;1.00;;
59872;SDS011;50750;51.636;4.948;2023-05-10T14:54:57;2.40;;;1.20;;
59872;SDS011;50750;51.636;4.948;2023-05-10T14:57:25;2.10;;;1.20;;
59872;SDS011;50750;51.636;4.948;2023-05-10T14:59:51;2.60;;;1.20;;
59872;SDS011;50750;51.636;4.948;2023-05-10T15:02:18;2.40;;;1.20;;
59872;SDS011;50750;51.636;4.948;2023-05-10T15:04:44;3.10;;;1.20;;
59872;SDS011;50750;51.636;4.948;2023-05-10T15:07:11;2.10;;;1.00;;
59872;SDS011;50750;51.636;4.948;2023-05-10T15:09:40;1.90;;;1.00;;
59872;SDS011;50750;51.636;4.948;2023-05-10T15:12:07;2.50;;;1.10;;
59872;SDS011;50750;51.636;4.948;2023-05-10T15:14:33;1.70;;;0.90;;
59872;SDS011;50750;51.636;4.948;2023-05-10T15:17:01;3.20;;;1.20;;
59872;SDS011;50750;51.636;4.948;2023-05-10T15:19:28;2.10;;;1.10;;
59872;SDS011;50750;51.636;4.948;2023-05-10T15:21:56;2.40;;;1.30;;
59872;SDS011;50750;51.636;4.948;2023-05-10T15:24:22;2.20;;;1.20;;